sensor_id;sensor_type;location;lat;lon;timestamp;pressure;altitude;pressure_sealevel;temperature;humidity
76603;BME280;65075;48.390;17.598;2023-05-16T00:00:00;99334.53;;;17.20;56.43
76603;BME280;65075;48.390;17.598;2023-05-16T00:02:27;99325.78;;;16.87;57.41
76603;BME280;65075;48.390;17.598;2023-05-16T00:04:53;99333.00;;;17.05;56.84
76603;BME280;65075;48.390;17.598;2023-05-16T00:07:18;99330.66;;;17.21;56.27
76603;BME280;65075;48.390;17.598;2023-05-16T00:09:44;99320.63;;;16.63;57.34
76603;BME280;65075;48.390;17.598;2023-05-16T00:12:10;99333.81;;;16.52;58.25
76603;BME280;65075;48.390;17.598;2023-05-16T00:14:35;99312.28;;;17.16;55.14
76603;BME280;65075;48.390;17.598;2023-05-16T00:17:02;99315.81;;;16.69;57.55
76603;BME280;65075;48.390;17.598;2023-05-16T00:19:29;99291.34;;;16.76;57.24
76603;BME280;65075;48.390;17.598;2023-05-16T00:21:54;99318.09;;;17.06;57.36
76603;BME280;65075;48.390;17.598;2023-05-16T00:24:20;99308.41;;;16.55;57.35
76603;BME280;65075;48.390;17.598;2023-05-16T00:26:46;99321.63;;;16.00;59.62
76603;BME280;65075;48.390;17.598;2023-05-16T00:29:11;99307.09;;;15.73;60.47
76603;BME280;65075;48.390;17.598;2023-05-16T00:31:37;99298.19;;;14.99;63.18
76603;BME280;65075;48.390;17.598;2023-05-16T00:34:03;99312.28;;;16.10;59.21
76603;BME280;65075;48.390;17.598;2023-05-16T00:36:28;99311.84;;;15.31;61.76
76603;BME280;65075;48.390;17.598;2023-05-16T00:38:55;99310.81;;;16.26;59.32
76603;BME280;65075;48.390;17.598;2023-05-16T00:41:21;99316.69;;;15.62;61.64
76603;BME280;65075;48.390;17.598;2023-05-16T00:43:46;99303.34;;;15.41;61.32
76603;BME280;65075;48.390;17.598;2023-05-16T00:46:12;99302.06;;;14.98;62.33
76603;BME280;65075;48.390;17.598;2023-05-16T00:48:38;99311.63;;;14.22;66.15
76603;BME280;65075;48.390;17.598;2023-05-16T00:51:03;99308.06;;;15.00;63.69
76603;BME280;65075;48.390;17.598;2023-05-16T00:53:34;99314.84;;;14.75;64.83
76603;BME280;65075;48.390;17.598;2023-05-16T00:56:01;99293.41;;;15.81;60.42
76603;BME280;65075;48.390;17.598;2023-05-16T00:58:29;99303.84;;;15.71;61.12
76603;BME280;65075;48.390;17.598;2023-05-16T01:00:54;99297.38;;;15.26;62.26
76603;BME280;65075;48.390;17.598;2023-05-16T01:03:21;99294.31;;;15.55;61.62
76603;BME280;65075;48.390;17.598;2023-05-16T01:05:46;99318.75;;;16.28;60.15
76603;BME280;65075;48.390;17.598;2023-05-16T01:08:14;99306.84;;;16.63;57.98
76603;BME280;65075;48.390;17.598;2023-05-16T01:10:51;99314.69;;;15.54;61.69
76603;BME280;65075;48.390;17.598;2023-05-16T01:13:50;99296.19;;;16.48;57.89
76603;BME280;65075;48.390;17.598;2023-05-16T01:22:04;99282.47;;;14.45;65.17
76603;BME280;65075;48.390;17.598;2023-05-16T01:27:24;99277.78;;;14.46;65.18
76603;BME280;65075;48.390;17.598;2023-05-16T01:29:55;99286.59;;;14.75;65.05
76603;BME280;65075;48.390;17.598;2023-05-16T01:32:21;99279.59;;;13.86;68.05
76603;BME280;65075;48.390;17.598;2023-05-16T01:34:49;99284.88;;;12.97;71.25
76603;BME280;65075;48.390;17.598;2023-05-16T01:37:26;99284.06;;;12.97;71.30
76603;BME280;65075;48.390;17.598;2023-05-16T01:40:08;99284.63;;;12.94;71.25
76603;BME280;65075;48.390;17.598;2023-05-16T01:42:42;99287.34;;;13.97;67.97
76603;BME280;65075;48.390;17.598;2023-05-16T01:47:44;99283.88;;;13.92;67.49
76603;BME280;65075;48.390;17.598;2023-05-16T01:50:15;99293.88;;;15.75;61.92
76603;BME280;65075;48.390;17.598;2023-05-16T01:52:49;99290.47;;;15.28;62.34
76603;BME280;65075;48.390;17.598;2023-05-16T01:55:40;99271.59;;;14.67;64.65
76603;BME280;65075;48.390;17.598;2023-05-16T01:58:07;99282.97;;;13.96;66.94
76603;BME280;65075;48.390;17.598;2023-05-16T02:00:34;99279.44;;;13.77;67.64
76603;BME280;65075;48.390;17.598;2023-05-16T02:03:00;99282.06;;;14.19;66.98
76603;BME280;65075;48.390;17.598;2023-05-16T02:05:25;99264.97;;;14.41;66.04
76603;BME280;65075;48.390;17.598;2023-05-16T02:07:51;99271.50;;;13.94;67.98
76603;BME280;65075;48.390;17.598;2023-05-16T02:10:17;99279.47;;;15.15;63.32
76603;BME280;65075;48.390;17.598;2023-05-16T02:12:44;99267.91;;;14.12;66.39
76603;BME280;65075;48.390;17.598;2023-05-16T02:15:09;99257.69;;;14.31;66.18
76603;BME280;65075;48.390;17.598;2023-05-16T02:17:35;99261.00;;;13.64;67.69
76603;BME280;65075;48.390;17.598;2023-05-16T02:20:00;99262.06;;;14.00;67.80
76603;BME280;65075;48.390;17.598;2023-05-16T02:22:32;99263.63;;;14.06;66.54
76603;BME280;65075;48.390;17.598;2023-05-16T02:24:59;99277.47;;;13.64;68.45
76603;BME280;65075;48.390;17.598;2023-05-16T02:27:25;99272.81;;;14.15;67.48
76603;BME280;65075;48.390;17.598;2023-05-16T02:29:50;99272.66;;;15.12;63.92
76603;BME280;65075;48.390;17.598;2023-05-16T02:32:16;99277.22;;;15.30;63.71
76603;BME280;65075;48.390;17.598;2023-05-16T02:34:41;99251.72;;;15.66;60.23
76603;BME280;65075;48.390;17.598;2023-05-16T02:37:07;99299.09;;;15.35;61.88
76603;BME280;65075;48.390;17.598;2023-05-16T02:39:33;99262.56;;;15.08;61.86
76603;BME280;65075;48.390;17.598;2023-05-16T02:41:58;99281.31;;;14.32;65.24
76603;BME280;65075;48.390;17.598;2023-05-16T02:44:24;99262.25;;;13.34;68.57
76603;BME280;65075;48.390;17.598;2023-05-16T02:46:49;99286.59;;;13.36;68.81
76603;BME280;65075;48.390;17.598;2023-05-16T02:49:15;99274.50;;;13.60;68.66
76603;BME280;65075;48.390;17.598;2023-05-16T02:51:41;99289.66;;;13.90;67.43
76603;BME280;65075;48.390;17.598;2023-05-16T02:54:06;99296.00;;;14.23;65.91
76603;BME280;65075;48.390;17.598;2023-05-16T02:56:34;99260.00;;;13.17;69.94
76603;BME280;65075;48.390;17.598;2023-05-16T02:59:00;99292.84;;;13.97;67.24
76603;BME280;65075;48.390;17.598;2023-05-16T03:01:26;99293.72;;;13.37;68.83
76603;BME280;65075;48.390;17.598;2023-05-16T03:03:51;99285.94;;;13.25;70.49
76603;BME280;65075;48.390;17.598;2023-05-16T03:06:17;99281.16;;;12.88;71.06
76603;BME280;65075;48.390;17.598;2023-05-16T03:08:43;99239.88;;;12.56;70.85
76603;BME280;65075;48.390;17.598;2023-05-16T03:11:08;99270.53;;;12.82;70.47
76603;BME280;65075;48.390;17.598;2023-05-16T03:13:34;99266.78;;;12.49;72.15
76603;BME280;65075;48.390;17.598;2023-05-16T03:15:59;99241.31;;;12.77;70.45
76603;BME280;65075;48.390;17.598;2023-05-16T03:18:25;99269.41;;;13.11;71.07
76603;BME280;65075;48.390;17.598;2023-05-16T03:20:51;99242.69;;;12.98;70.60
76603;BME280;65075;48.390;17.598;2023-05-16T03:23:18;99242.28;;;14.03;66.55
76603;BME280;65075;48.390;17.598;2023-05-16T03:25:44;99240.75;;;13.23;69.67
76603;BME280;65075;48.390;17.598;2023-05-16T03:28:11;99256.41;;;13.41;68.74
76603;BME280;65075;48.390;17.598;2023-05-16T03:30:36;99235.41;;;13.87;67.41
76603;BME280;65075;48.390;17.598;2023-05-16T03:33:02;99207.53;;;12.63;71.14
76603;BME280;65075;48.390;17.598;2023-05-16T03:35:32;99260.97;;;13.83;67.66
76603;BME280;65075;48.390;17.598;2023-05-16T03:37:59;99261.75;;;13.08;70.08
76603;BME280;65075;48.390;17.598;2023-05-16T03:40:24;99268.81;;;12.38;73.51
76603;BME280;65075;48.390;17.598;2023-05-16T03:42:50;99259.34;;;11.97;75.35
76603;BME280;65075;48.390;17.598;2023-05-16T03:45:15;99259.09;;;11.93;76.45
76603;BME280;65075;48.390;17.598;2023-05-16T03:47:41;99260.03;;;12.65;73.16
76603;BME280;65075;48.390;17.598;2023-05-16T03:50:07;99247.09;;;11.89;77.27
76603;BME280;65075;48.390;17.598;2023-05-16T03:52:35;99242.53;;;12.90;71.87
76603;BME280;65075;48.390;17.598;2023-05-16T03:55:00;99252.25;;;13.62;70.10
76603;BME280;65075;48.390;17.598;2023-05-16T03:57:32;99256.75;;;13.34;70.66
76603;BME280;65075;48.390;17.598;2023-05-16T03:59:58;99256.13;;;13.18;71.21
76603;BME280;65075;48.390;17.598;2023-05-16T04:02:24;99247.81;;;14.17;67.85
76603;BME280;65075;48.390;17.598;2023-05-16T04:04:50;99252.88;;;12.17;75.36
76603;BME280;65075;48.390;17.598;2023-05-16T04:07:16;99266.13;;;13.09;72.27
76603;BME280;65075;48.390;17.598;2023-05-16T04:09:41;99242.00;;;12.64;74.47
76603;BME280;65075;48.390;17.598;2023-05-16T04:12:07;99254.47;;;12.23;75.13
76603;BME280;65075;48.390;17.598;2023-05-16T04:14:34;99242.75;;;12.46;74.15
76603;BME280;65075;48.390;17.598;2023-05-16T04:17:00;99253.41;;;13.18;71.40
76603;BME280;65075;48.390;17.598;2023-05-16T04:19:26;99216.59;;;13.62;69.22
76603;BME280;65075;48.390;17.598;2023-05-16T04:21:51;99243.41;;;14.35;67.72
76603;BME280;65075;48.390;17.598;2023-05-16T04:24:17;99249.78;;;13.23;71.12
76603;BME280;65075;48.390;17.598;2023-05-16T04:26:43;99214.69;;;12.35;72.69
76603;BME280;65075;48.390;17.598;2023-05-16T04:29:09;99244.31;;;12.76;74.04
76603;BME280;65075;48.390;17.598;2023-05-16T04:31:34;99240.00;;;13.36;71.14
76603;BME280;65075;48.390;17.598;2023-05-16T04:34:01;99249.75;;;13.47;70.40
76603;BME280;65075;48.390;17.598;2023-05-16T04:36:27;99246.31;;;13.92;69.30
76603;BME280;65075;48.390;17.598;2023-05-16T04:38:55;99244.66;;;12.93;71.94
76603;BME280;65075;48.390;17.598;2023-05-16T04:41:20;99243.94;;;13.67;70.06
76603;BME280;65075;48.390;17.598;2023-05-16T04:43:47;99215.28;;;13.78;69.94
76603;BME280;65075;48.390;17.598;2023-05-16T04:46:13;99249.59;;;14.08;69.22
76603;BME280;65075;48.390;17.598;2023-05-16T04:48:40;99249.34;;;14.23;69.08
76603;BME280;65075;48.390;17.598;2023-05-16T04:51:06;99233.97;;;15.72;63.81
76603;BME280;65075;48.390;17.598;2023-05-16T04:53:32;99274.06;;;15.10;65.30
76603;BME280;65075;48.390;17.598;2023-05-16T04:55:58;99272.53;;;14.90;65.90
76603;BME280;65075;48.390;17.598;2023-05-16T04:58:23;99276.22;;;14.72;65.71
76603;BME280;65075;48.390;17.598;2023-05-16T05:00:53;99282.31;;;15.23;65.34
76603;BME280;65075;48.390;17.598;2023-05-16T05:03:20;99304.50;;;15.40;65.15
76603;BME280;65075;48.390;17.598;2023-05-16T05:05:46;99258.72;;;16.38;59.76
76603;BME280;65075;48.390;17.598;2023-05-16T05:08:12;99258.50;;;15.05;64.67
76603;BME280;65075;48.390;17.598;2023-05-16T05:10:39;99277.28;;;15.39;62.88
76603;BME280;65075;48.390;17.598;2023-05-16T05:13:04;99316.09;;;14.83;65.88
76603;BME280;65075;48.390;17.598;2023-05-16T05:15:30;99255.19;;;14.03;68.28
76603;BME280;65075;48.390;17.598;2023-05-16T05:17:55;99262.63;;;13.65;69.45
76603;BME280;65075;48.390;17.598;2023-05-16T05:20:21;99315.66;;;16.07;64.27
76603;BME280;65075;48.390;17.598;2023-05-16T05:22:47;99313.13;;;13.59;71.03
76603;BME280;65075;48.390;17.598;2023-05-16T05:25:13;99263.44;;;13.65;69.75
76603;BME280;65075;48.390;17.598;2023-05-16T05:27:38;99320.88;;;14.45;67.80
76603;BME280;65075;48.390;17.598;2023-05-16T05:30:05;99318.41;;;14.11;69.02
76603;BME280;65075;48.390;17.598;2023-05-16T05:32:31;99327.59;;;14.53;68.09
76603;BME280;65075;48.390;17.598;2023-05-16T05:34:56;99316.84;;;15.29;65.57
76603;BME280;65075;48.390;17.598;2023-05-16T05:37:22;99321.16;;;16.74;61.35
76603;BME280;65075;48.390;17.598;2023-05-16T05:39:50;99293.69;;;15.30;63.69
76603;BME280;65075;48.390;17.598;2023-05-16T05:42:16;99312.25;;;13.82;70.39
76603;BME280;65075;48.390;17.598;2023-05-16T05:44:42;99320.03;;;16.52;62.51
76603;BME280;65075;48.390;17.598;2023-05-16T05:47:07;99308.63;;;14.70;67.30
76603;BME280;65075;48.390;17.598;2023-05-16T05:49:34;99307.69;;;15.83;63.24
76603;BME280;65075;48.390;17.598;2023-05-16T05:52:00;99307.13;;;15.45;64.26
76603;BME280;65075;48.390;17.598;2023-05-16T05:54:25;99293.81;;;14.39;69.08
76603;BME280;65075;48.390;17.598;2023-05-16T05:56:51;99289.03;;;14.90;66.49
76603;BME280;65075;48.390;17.598;2023-05-16T05:59:17;99301.16;;;14.89;66.97
76603;BME280;65075;48.390;17.598;2023-05-16T06:01:42;99300.41;;;17.07;61.11
76603;BME280;65075;48.390;17.598;2023-05-16T06:04:11;99283.84;;;14.75;66.98
76603;BME280;65075;48.390;17.598;2023-05-16T06:06:37;99308.16;;;15.63;64.95
76603;BME280;65075;48.390;17.598;2023-05-16T06:09:02;99322.94;;;15.40;65.58
76603;BME280;65075;48.390;17.598;2023-05-16T06:11:28;99294.13;;;15.87;63.50
76603;BME280;65075;48.390;17.598;2023-05-16T06:13:53;99296.16;;;15.05;66.45
76603;BME280;65075;48.390;17.598;2023-05-16T06:16:23;99309.84;;;15.86;64.01
76603;BME280;65075;48.390;17.598;2023-05-16T06:18:49;99307.72;;;17.03;60.73
76603;BME280;65075;48.390;17.598;2023-05-16T06:21:15;99301.44;;;17.20;60.39
76603;BME280;65075;48.390;17.598;2023-05-16T06:23:41;99290.56;;;18.14;57.25
76603;BME280;65075;48.390;17.598;2023-05-16T06:26:06;99300.13;;;18.42;57.33
76603;BME280;65075;48.390;17.598;2023-05-16T06:28:32;99306.00;;;18.15;58.91
76603;BME280;65075;48.390;17.598;2023-05-16T06:30:57;99300.78;;;17.88;59.12
76603;BME280;65075;48.390;17.598;2023-05-16T06:33:23;99303.66;;;19.23;54.81
76603;BME280;65075;48.390;17.598;2023-05-16T06:35:49;99313.75;;;18.47;58.07
76603;BME280;65075;48.390;17.598;2023-05-16T06:38:15;99304.50;;;19.07;55.55
76603;BME280;65075;48.390;17.598;2023-05-16T06:40:40;99284.56;;;18.12;57.31
76603;BME280;65075;48.390;17.598;2023-05-16T06:43:06;99273.84;;;17.85;59.33
76603;BME280;65075;48.390;17.598;2023-05-16T06:45:32;99295.72;;;18.33;57.17
76603;BME280;65075;48.390;17.598;2023-05-16T06:47:57;99301.13;;;18.20;57.93
76603;BME280;65075;48.390;17.598;2023-05-16T06:50:23;99287.81;;;17.80;59.82
76603;BME280;65075;48.390;17.598;2023-05-16T06:52:48;99289.91;;;17.09;63.05
76603;BME280;65075;48.390;17.598;2023-05-16T06:55:14;99286.81;;;17.67;60.58
76603;BME280;65075;48.390;17.598;2023-05-16T06:57:40;99279.16;;;19.05;56.50
76603;BME280;65075;48.390;17.598;2023-05-16T07:00:06;99286.78;;;18.61;57.32
76603;BME280;65075;48.390;17.598;2023-05-16T07:02:32;99278.72;;;18.05;59.25
76603;BME280;65075;48.390;17.598;2023-05-16T07:04:58;99284.69;;;18.15;58.40
76603;BME280;65075;48.390;17.598;2023-05-16T07:07:23;99297.28;;;18.85;57.20
76603;BME280;65075;48.390;17.598;2023-05-16T07:09:49;99304.53;;;18.26;57.97
76603;BME280;65075;48.390;17.598;2023-05-16T07:12:15;99302.56;;;17.92;58.78
76603;BME280;65075;48.390;17.598;2023-05-16T07:14:41;99292.97;;;18.24;58.79
76603;BME280;65075;48.390;17.598;2023-05-16T07:17:08;99293.56;;;18.72;57.82
76603;BME280;65075;48.390;17.598;2023-05-16T07:19:33;99269.19;;;18.74;57.68
76603;BME280;65075;48.390;17.598;2023-05-16T07:21:59;99282.53;;;18.47;58.51
76603;BME280;65075;48.390;17.598;2023-05-16T07:24:25;99275.13;;;17.61;61.30
76603;BME280;65075;48.390;17.598;2023-05-16T07:26:50;99251.09;;;17.70;59.92
76603;BME280;65075;48.390;17.598;2023-05-16T07:29:16;99287.50;;;17.25;62.31
76603;BME280;65075;48.390;17.598;2023-05-16T07:31:41;99306.94;;;17.67;60.59
76603;BME280;65075;48.390;17.598;2023-05-16T07:34:08;99280.00;;;17.64;61.03
76603;BME280;65075;48.390;17.598;2023-05-16T07:36:34;99272.63;;;17.43;62.71
76603;BME280;65075;48.390;17.598;2023-05-16T07:38:59;99273.63;;;17.55;61.03
76603;BME280;65075;48.390;17.598;2023-05-16T07:41:25;99287.47;;;17.81;61.25
76603;BME280;65075;48.390;17.598;2023-05-16T07:43:52;99272.19;;;18.18;59.45
76603;BME280;65075;48.390;17.598;2023-05-16T07:46:17;99303.97;;;19.22;57.56
76603;BME280;65075;48.390;17.598;2023-05-16T07:48:43;99254.00;;;18.34;59.08
76603;BME280;65075;48.390;17.598;2023-05-16T07:51:11;99241.25;;;17.22;61.63
76603;BME280;65075;48.390;17.598;2023-05-16T07:53:37;99277.00;;;17.52;61.13
76603;BME280;65075;48.390;17.598;2023-05-16T07:56:03;99293.47;;;17.57;61.32
76603;BME280;65075;48.390;17.598;2023-05-16T07:58:29;99268.94;;;18.16;60.04
76603;BME280;65075;48.390;17.598;2023-05-16T08:00:55;99295.63;;;17.30;62.84
76603;BME280;65075;48.390;17.598;2023-05-16T08:03:20;99257.75;;;18.04;60.15
76603;BME280;65075;48.390;17.598;2023-05-16T08:05:47;99278.63;;;19.49;56.09
76603;BME280;65075;48.390;17.598;2023-05-16T08:08:13;99305.22;;;18.86;58.57
76603;BME280;65075;48.390;17.598;2023-05-16T08:10:42;99318.75;;;18.79;59.37
76603;BME280;65075;48.390;17.598;2023-05-16T08:13:08;99296.03;;;19.12;57.33
76603;BME280;65075;48.390;17.598;2023-05-16T08:15:34;99313.97;;;19.35;56.07
76603;BME280;65075;48.390;17.598;2023-05-16T08:18:00;99281.19;;;18.78;57.14
76603;BME280;65075;48.390;17.598;2023-05-16T08:20:35;99325.25;;;19.88;55.18
76603;BME280;65075;48.390;17.598;2023-05-16T08:23:00;99304.06;;;19.34;55.78
76603;BME280;65075;48.390;17.598;2023-05-16T08:25:26;99282.47;;;20.19;52.94
76603;BME280;65075;48.390;17.598;2023-05-16T08:27:52;99326.19;;;20.13;54.29
76603;BME280;65075;48.390;17.598;2023-05-16T08:30:17;99311.19;;;19.73;55.89
76603;BME280;65075;48.390;17.598;2023-05-16T08:32:43;99314.56;;;19.20;57.08
76603;BME280;65075;48.390;17.598;2023-05-16T08:35:09;99316.19;;;19.79;54.42
76603;BME280;65075;48.390;17.598;2023-05-16T08:37:35;99317.59;;;20.47;53.23
76603;BME280;65075;48.390;17.598;2023-05-16T08:40:01;99306.28;;;17.70;60.02
76603;BME280;65075;48.390;17.598;2023-05-16T08:42:26;99344.41;;;19.35;56.65
76603;BME280;65075;48.390;17.598;2023-05-16T08:44:52;99339.03;;;20.18;55.26
76603;BME280;65075;48.390;17.598;2023-05-16T08:47:18;99350.00;;;20.35;54.75
76603;BME280;65075;48.390;17.598;2023-05-16T08:49:51;99342.41;;;20.44;55.47
76603;BME280;65075;48.390;17.598;2023-05-16T08:52:21;99352.63;;;21.30;53.42
76603;BME280;65075;48.390;17.598;2023-05-16T08:54:51;99341.28;;;21.95;51.58
76603;BME280;65075;48.390;17.598;2023-05-16T08:57:19;99355.53;;;20.35;53.64
76603;BME280;65075;48.390;17.598;2023-05-16T08:59:45;99339.56;;;20.52;55.27
76603;BME280;65075;48.390;17.598;2023-05-16T09:02:11;99348.69;;;21.55;51.95
76603;BME280;65075;48.390;17.598;2023-05-16T09:04:37;99344.31;;;20.85;52.79
76603;BME280;65075;48.390;17.598;2023-05-16T09:07:05;99293.25;;;20.98;53.25
76603;BME280;65075;48.390;17.598;2023-05-16T09:09:31;99342.69;;;21.65;52.51
76603;BME280;65075;48.390;17.598;2023-05-16T09:11:56;99318.38;;;21.50;53.36
76603;BME280;65075;48.390;17.598;2023-05-16T09:14:22;99338.03;;;21.21;54.62
76603;BME280;65075;48.390;17.598;2023-05-16T09:17:05;99338.50;;;21.35;54.38
76603;BME280;65075;48.390;17.598;2023-05-16T09:19:41;99336.47;;;20.54;57.58
76603;BME280;65075;48.390;17.598;2023-05-16T09:22:12;99333.81;;;20.90;56.46
76603;BME280;65075;48.390;17.598;2023-05-16T09:24:42;99320.88;;;19.58;59.55
76603;BME280;65075;48.390;17.598;2023-05-16T09:29:34;99267.56;;;19.90;57.79
76603;BME280;65075;48.390;17.598;2023-05-16T09:32:08;99313.63;;;19.74;59.47
76603;BME280;65075;48.390;17.598;2023-05-16T09:34:46;99309.38;;;20.39;58.00
76603;BME280;65075;48.390;17.598;2023-05-16T09:37:13;99275.53;;;19.71;59.45
76603;BME280;65075;48.390;17.598;2023-05-16T09:39:45;99287.59;;;19.46;60.49
76603;BME280;65075;48.390;17.598;2023-05-16T09:42:15;99278.50;;;19.66;61.36
76603;BME280;65075;48.390;17.598;2023-05-16T09:44:45;99258.06;;;19.21;61.12
76603;BME280;65075;48.390;17.598;2023-05-16T09:47:19;99265.06;;;19.56;60.37
76603;BME280;65075;48.390;17.598;2023-05-16T09:49:47;99271.28;;;19.94;60.38
76603;BME280;65075;48.390;17.598;2023-05-16T09:52:16;99267.44;;;19.08;62.02
76603;BME280;65075;48.390;17.598;2023-05-16T09:54:42;99248.09;;;18.44;63.20
76603;BME280;65075;48.390;17.598;2023-05-16T09:57:08;99241.75;;;18.99;62.72
76603;BME280;65075;48.390;17.598;2023-05-16T09:59:39;99275.53;;;19.92;60.16
76603;BME280;65075;48.390;17.598;2023-05-16T10:02:06;99269.03;;;20.62;58.75
76603;BME280;65075;48.390;17.598;2023-05-16T10:04:33;99273.13;;;18.65;62.13
76603;BME280;65075;48.390;17.598;2023-05-16T10:07:03;99277.56;;;19.62;59.39
76603;BME280;65075;48.390;17.598;2023-05-16T10:09:33;99292.63;;;19.44;59.46
76603;BME280;65075;48.390;17.598;2023-05-16T10:12:01;99296.72;;;20.50;56.58
76603;BME280;65075;48.390;17.598;2023-05-16T10:14:33;99292.34;;;20.08;55.63
76603;BME280;65075;48.390;17.598;2023-05-16T10:17:02;99316.69;;;17.73;63.09
76603;BME280;65075;48.390;17.598;2023-05-16T10:19:31;99326.16;;;19.05;57.95
76603;BME280;65075;48.390;17.598;2023-05-16T10:22:02;99319.69;;;19.68;55.39
76603;BME280;65075;48.390;17.598;2023-05-16T10:24:57;99317.88;;;19.92;56.34
76603;BME280;65075;48.390;17.598;2023-05-16T10:27:23;99309.25;;;20.68;54.04
76603;BME280;65075;48.390;17.598;2023-05-16T10:29:51;99297.91;;;21.06;54.89
76603;BME280;65075;48.390;17.598;2023-05-16T10:32:17;99292.84;;;20.63;54.92
76603;BME280;65075;48.390;17.598;2023-05-16T10:34:44;99304.31;;;21.43;53.53
76603;BME280;65075;48.390;17.598;2023-05-16T10:37:10;99322.09;;;21.42;53.65
76603;BME280;65075;48.390;17.598;2023-05-16T10:39:37;99320.53;;;22.45;50.78
76603;BME280;65075;48.390;17.598;2023-05-16T10:42:05;99325.31;;;21.80;52.53
76603;BME280;65075;48.390;17.598;2023-05-16T10:44:38;99334.69;;;21.15;54.18
76603;BME280;65075;48.390;17.598;2023-05-16T10:47:04;99354.25;;;21.31;55.07
76603;BME280;65075;48.390;17.598;2023-05-16T10:49:30;99341.25;;;21.83;53.88
76603;BME280;65075;48.390;17.598;2023-05-16T10:52:09;99342.94;;;22.64;50.84
76603;BME280;65075;48.390;17.598;2023-05-16T10:54:41;99350.88;;;22.77;50.74
76603;BME280;65075;48.390;17.598;2023-05-16T10:57:10;99355.94;;;23.03;48.01
76603;BME280;65075;48.390;17.598;2023-05-16T10:59:42;99357.81;;;20.74;54.95
76603;BME280;65075;48.390;17.598;2023-05-16T11:02:29;99360.69;;;21.10;53.57
76603;BME280;65075;48.390;17.598;2023-05-16T11:04:59;99347.41;;;22.01;51.95
76603;BME280;65075;48.390;17.598;2023-05-16T11:07:33;99369.06;;;21.71;51.52
76603;BME280;65075;48.390;17.598;2023-05-16T11:10:14;99376.53;;;20.89;51.95
76603;BME280;65075;48.390;17.598;2023-05-16T11:12:50;99359.25;;;18.75;56.34
76603;BME280;65075;48.390;17.598;2023-05-16T11:15:20;99374.19;;;17.89;60.04
76603;BME280;65075;48.390;17.598;2023-05-16T11:17:46;99347.50;;;18.96;59.00
76603;BME280;65075;48.390;17.598;2023-05-16T11:20:28;99333.72;;;19.83;56.40
76603;BME280;65075;48.390;17.598;2023-05-16T11:25:51;99307.41;;;19.77;58.13
76603;BME280;65075;48.390;17.598;2023-05-16T11:28:19;99330.66;;;20.47;57.40
76603;BME280;65075;48.390;17.598;2023-05-16T11:30:51;99323.38;;;19.51;59.21
76603;BME280;65075;48.390;17.598;2023-05-16T11:33:17;99309.66;;;20.46;55.66
76603;BME280;65075;48.390;17.598;2023-05-16T11:36:02;99291.44;;;19.54;59.22
76603;BME280;65075;48.390;17.598;2023-05-16T11:38:31;99263.59;;;18.02;63.56
76603;BME280;65075;48.390;17.598;2023-05-16T11:41:05;99250.88;;;16.85;65.45
76603;BME280;65075;48.390;17.598;2023-05-16T11:43:42;99245.41;;;16.54;69.56
76603;BME280;65075;48.390;17.598;2023-05-16T11:46:12;99244.28;;;17.59;65.25
76603;BME280;65075;48.390;17.598;2023-05-16T11:48:38;99243.66;;;18.77;62.95
76603;BME280;65075;48.390;17.598;2023-05-16T11:51:04;99245.28;;;17.98;66.70
76603;BME280;65075;48.390;17.598;2023-05-16T11:53:31;99265.16;;;17.35;68.06
76603;BME280;65075;48.390;17.598;2023-05-16T11:55:58;99267.44;;;19.08;63.13
76603;BME280;65075;48.390;17.598;2023-05-16T11:58:26;99255.13;;;18.97;61.91
76603;BME280;65075;48.390;17.598;2023-05-16T12:00:52;99247.38;;;18.81;63.81
76603;BME280;65075;48.390;17.598;2023-05-16T12:03:18;99242.44;;;18.41;64.86
76603;BME280;65075;48.390;17.598;2023-05-16T12:05:55;99251.88;;;19.24;62.19
76603;BME280;65075;48.390;17.598;2023-05-16T12:08:23;99213.56;;;19.43;61.25
76603;BME280;65075;48.390;17.598;2023-05-16T12:10:50;99235.53;;;17.75;66.12
76603;BME280;65075;48.390;17.598;2023-05-16T12:13:18;99233.56;;;18.73;64.34
76603;BME280;65075;48.390;17.598;2023-05-16T12:15:45;99238.25;;;18.17;65.29
76603;BME280;65075;48.390;17.598;2023-05-16T12:18:11;99217.50;;;17.77;65.02
76603;BME280;65075;48.390;17.598;2023-05-16T12:20:38;99215.59;;;18.58;63.81
76603;BME280;65075;48.390;17.598;2023-05-16T12:23:12;99221.06;;;19.05;61.42
76603;BME280;65075;48.390;17.598;2023-05-16T12:25:43;99238.94;;;19.66;60.33
76603;BME280;65075;48.390;17.598;2023-05-16T12:28:14;99218.00;;;19.97;60.06
76603;BME280;65075;48.390;17.598;2023-05-16T12:30:41;99202.88;;;21.09;57.06
76603;BME280;65075;48.390;17.598;2023-05-16T12:33:10;99232.41;;;18.82;63.54
76603;BME280;65075;48.390;17.598;2023-05-16T12:35:41;99222.31;;;19.45;62.34
76603;BME280;65075;48.390;17.598;2023-05-16T12:38:09;99225.13;;;19.98;58.97
76603;BME280;65075;48.390;17.598;2023-05-16T12:40:37;99225.44;;;19.85;58.99
76603;BME280;65075;48.390;17.598;2023-05-16T12:43:15;99226.22;;;18.22;63.39
76603;BME280;65075;48.390;17.598;2023-05-16T12:45:54;99227.91;;;18.69;61.46
76603;BME280;65075;48.390;17.598;2023-05-16T12:48:21;99214.16;;;18.35;63.38
76603;BME280;65075;48.390;17.598;2023-05-16T12:50:47;99211.50;;;19.31;61.64
76603;BME280;65075;48.390;17.598;2023-05-16T12:53:15;99205.31;;;19.76;59.75
76603;BME280;65075;48.390;17.598;2023-05-16T12:55:42;99211.28;;;19.36;60.72
76603;BME280;65075;48.390;17.598;2023-05-16T12:58:09;99191.22;;;20.02;60.56
76603;BME280;65075;48.390;17.598;2023-05-16T13:00:36;99204.50;;;19.75;60.81
76603;BME280;65075;48.390;17.598;2023-05-16T13:03:04;99209.22;;;18.66;64.94
76603;BME280;65075;48.390;17.598;2023-05-16T13:05:31;99208.16;;;20.78;57.82
76603;BME280;65075;48.390;17.598;2023-05-16T13:07:57;99205.97;;;19.93;60.61